createdAt,value
2023-01-22T00:00:06.799Z,11.13
2023-01-22T00:02:36.483Z,12.30
2023-01-22T00:05:04.613Z,14.13
2023-01-22T00:07:31.453Z,12.63
2023-01-22T00:09:59.945Z,12.37
2023-01-22T00:12:27.498Z,15.07
2023-01-22T00:14:54.233Z,10.80
2023-01-22T00:17:21.116Z,12.10
2023-01-22T00:19:48.067Z,11.90
2023-01-22T00:22:15.018Z,14.20
2023-01-22T00:24:42.266Z,16.03
2023-01-22T00:27:09.368Z,12.40
2023-01-22T00:29:36.626Z,12.73
2023-01-22T00:32:03.634Z,12.53
2023-01-22T00:34:30.985Z,11.93
2023-01-22T00:36:58.033Z,12.17
2023-01-22T00:39:25.038Z,13.33
2023-01-22T00:41:53.225Z,15.07
2023-01-22T00:44:19.791Z,10.90
2023-01-22T00:46:46.599Z,12.10
2023-01-22T00:49:13.207Z,12.23
2023-01-22T00:51:39.867Z,13.30
2023-01-22T00:54:06.973Z,13.07
2023-01-22T00:56:33.688Z,12.63
2023-01-22T00:59:00.318Z,12.87
2023-01-22T01:01:27.007Z,13.17
2023-01-22T01:03:53.934Z,16.03
2023-01-22T01:06:22.012Z,14.80
2023-01-22T01:08:49.910Z,14.73
2023-01-22T01:11:26.284Z,15.40
2023-01-22T01:13:53.783Z,14.37
2023-01-22T01:16:30.012Z,16.23
2023-01-22T01:19:01.714Z,15.10
2023-01-22T01:21:28.919Z,18.63
2023-01-22T01:23:56.349Z,15.90
2023-01-22T01:26:23.355Z,15.77
2023-01-22T01:28:52.498Z,15.67
2023-01-22T01:31:20.452Z,18.53
2023-01-22T01:33:47.249Z,13.70
2023-01-22T01:36:30.733Z,16.83
2023-01-22T01:39:06.064Z,17.37
2023-01-22T01:41:32.609Z,14.97
2023-01-22T01:44:13.395Z,12.83
2023-01-22T01:46:43.546Z,13.70
2023-01-22T01:49:20.068Z,16.03
2023-01-22T01:51:47.079Z,13.20
2023-01-22T01:54:13.686Z,14.97
2023-01-22T01:56:44.850Z,15.03
2023-01-22T01:59:14.970Z,14.20
2023-01-22T02:01:42.109Z,18.77
2023-01-22T02:04:08.931Z,15.27
2023-01-22T02:06:35.479Z,13.87
2023-01-22T02:09:02.790Z,13.67
2023-01-22T02:11:30.668Z,14.53
2023-01-22T02:14:04.900Z,15.17
2023-01-22T02:16:32.032Z,13.93
2023-01-22T02:18:58.995Z,13.53
2023-01-22T02:21:38.147Z,13.63
2023-01-22T02:24:13.809Z,14.47
2023-01-22T02:26:41.786Z,13.63
2023-01-22T02:29:11.841Z,14.87
2023-01-22T02:31:40.584Z,11.73
2023-01-22T02:34:09.673Z,13.00
2023-01-22T02:36:38.380Z,14.47
2023-01-22T02:39:06.614Z,13.10
2023-01-22T02:41:33.473Z,12.87
2023-01-22T02:44:00.627Z,13.73
2023-01-22T02:46:27.454Z,16.30
2023-01-22T02:48:54.043Z,14.47
2023-01-22T02:51:20.718Z,15.07
2023-01-22T02:53:47.465Z,14.07
2023-01-22T02:56:14.112Z,12.40
2023-01-22T02:58:40.877Z,14.00
2023-01-22T03:01:19.043Z,14.93
2023-01-22T03:03:54.635Z,14.77
2023-01-22T03:06:22.837Z,15.83
2023-01-22T03:08:58.231Z,15.27
2023-01-22T03:11:26.732Z,15.33
2023-01-22T03:14:13.729Z,13.30
2023-01-22T03:16:59.548Z,15.63
2023-01-22T03:19:45.343Z,14.60
2023-01-22T03:22:12.380Z,14.67
2023-01-22T03:24:39.349Z,16.13
2023-01-22T03:27:06.230Z,13.97
2023-01-22T03:29:33.019Z,16.27
2023-01-22T03:31:59.767Z,15.00
2023-01-22T03:34:26.654Z,17.87
2023-01-22T03:36:53.475Z,14.93
2023-01-22T03:39:20.261Z,15.73
2023-01-22T03:41:46.829Z,17.23
2023-01-22T03:44:14.271Z,15.93
2023-01-22T03:46:41.149Z,16.77
2023-01-22T03:49:08.313Z,17.97
2023-01-22T03:51:35.547Z,18.00
2023-01-22T03:54:02.381Z,18.33
2023-01-22T03:56:29.109Z,20.53
2023-01-22T03:58:56.395Z,18.07
2023-01-22T04:01:27.923Z,18.47
2023-01-22T04:03:55.061Z,21.23
2023-01-22T04:06:23.213Z,25.60
2023-01-22T04:08:51.491Z,19.90
2023-01-22T04:11:18.689Z,21.53
2023-01-22T04:13:45.997Z,18.67
2023-01-22T04:16:13.848Z,20.07
2023-01-22T04:18:41.679Z,19.87
2023-01-22T04:21:08.601Z,22.20
2023-01-22T04:23:35.436Z,23.33
2023-01-22T04:26:02.011Z,23.60
2023-01-22T04:28:28.995Z,24.37
2023-01-22T04:30:56.135Z,22.57
2023-01-22T04:33:22.755Z,28.73
2023-01-22T04:35:54.420Z,23.87
2023-01-22T04:38:21.061Z,25.57
2023-01-22T04:40:47.623Z,25.90
2023-01-22T04:43:14.158Z,25.93
2023-01-22T04:45:40.648Z,23.40
2023-01-22T04:48:08.591Z,28.03
2023-01-22T04:50:35.251Z,24.73
2023-01-22T04:53:02.109Z,27.07
2023-01-22T04:55:29.290Z,27.03
2023-01-22T04:57:57.067Z,25.77
2023-01-22T05:00:24.402Z,30.73
2023-01-22T05:02:51.169Z,28.37
2023-01-22T05:05:17.732Z,27.90
2023-01-22T05:07:44.295Z,31.57
2023-01-22T05:10:10.955Z,29.87
2023-01-22T05:12:37.533Z,31.30
2023-01-22T05:15:14.989Z,30.97
2023-01-22T05:17:45.227Z,29.10
2023-01-22T05:20:12.052Z,30.73
2023-01-22T05:22:38.723Z,30.03
2023-01-22T05:25:05.595Z,34.00
2023-01-22T05:27:32.421Z,32.73
2023-01-22T05:29:59.015Z,35.10
2023-01-22T05:32:25.521Z,27.07
2023-01-22T05:34:52.046Z,27.90
2023-01-22T05:37:18.557Z,34.43
2023-01-22T05:39:45.050Z,25.57
2023-01-22T05:42:14.601Z,27.67
2023-01-22T05:44:41.056Z,29.93
2023-01-22T05:47:08.309Z,26.90
2023-01-22T05:49:34.843Z,27.17
2023-01-22T05:52:01.479Z,25.17
2023-01-22T05:54:27.953Z,30.63
2023-01-22T05:56:54.400Z,31.37
2023-01-22T05:59:20.951Z,29.90
2023-01-22T06:01:47.634Z,31.47
2023-01-22T06:04:14.106Z,29.47
2023-01-22T06:06:40.547Z,28.97
2023-01-22T06:09:07.019Z,26.40
2023-01-22T06:11:33.457Z,26.13
2023-01-22T06:13:59.956Z,26.67
2023-01-22T06:16:26.444Z,29.47
2023-01-22T06:18:52.869Z,34.53
2023-01-22T06:21:19.302Z,31.07
2023-01-22T06:23:46.108Z,28.03
2023-01-22T06:26:12.596Z,29.07
2023-01-22T06:28:39.367Z,30.53
2023-01-22T06:31:07.617Z,28.47
2023-01-22T06:33:34.975Z,28.77
2023-01-22T06:36:02.075Z,30.27
2023-01-22T06:38:28.681Z,27.63
2023-01-22T06:40:56.725Z,33.37
2023-01-22T06:43:24.089Z,26.70
2023-01-22T06:45:50.639Z,36.70
2023-01-22T06:48:17.127Z,26.43
2023-01-22T06:50:43.608Z,29.57
2023-01-22T06:53:10.425Z,28.03
2023-01-22T06:55:37.129Z,26.53
2023-01-22T06:58:03.625Z,24.33
2023-01-22T07:00:30.159Z,30.77
2023-01-22T07:02:57.161Z,32.47
2023-01-22T07:05:23.749Z,28.77
2023-01-22T07:07:53.950Z,25.27
2023-01-22T07:10:20.976Z,24.77
2023-01-22T07:12:48.969Z,22.90
2023-01-22T07:15:15.486Z,25.50
2023-01-22T07:17:41.915Z,23.33
2023-01-22T07:20:09.297Z,22.53
2023-01-22T07:22:35.794Z,23.23
2023-01-22T07:25:02.351Z,23.03
2023-01-22T07:27:30.406Z,28.33
2023-01-22T07:29:56.871Z,23.10
2023-01-22T07:32:23.298Z,27.27
2023-01-22T07:34:49.691Z,26.13
2023-01-22T07:37:16.064Z,28.43
2023-01-22T07:39:42.524Z,22.80
2023-01-22T07:42:08.982Z,23.47
2023-01-22T07:44:36.993Z,24.63
2023-01-22T07:47:03.547Z,19.50
2023-01-22T07:49:29.976Z,19.73
2023-01-22T07:51:56.433Z,21.70
2023-01-22T07:54:23.790Z,21.47
2023-01-22T07:56:50.421Z,24.23
2023-01-22T07:59:16.879Z,24.03
2023-01-22T08:01:43.418Z,21.93
2023-01-22T08:04:09.825Z,23.63
2023-01-22T08:06:36.278Z,21.37
2023-01-22T08:09:02.693Z,26.00
2023-01-22T08:11:29.142Z,25.93
2023-01-22T08:13:55.648Z,19.53
2023-01-22T08:16:22.372Z,22.57
2023-01-22T08:18:49.411Z,23.37
2023-01-22T08:21:15.834Z,23.20
2023-01-22T08:23:45.269Z,27.53
2023-01-22T08:26:13.143Z,25.23
2023-01-22T08:28:39.626Z,25.30
2023-01-22T08:31:09.375Z,26.33
2023-01-22T08:33:38.420Z,31.60
2023-01-22T08:36:05.991Z,30.83
2023-01-22T08:38:32.496Z,32.80
2023-01-22T08:40:59.133Z,33.87
2023-01-22T08:43:25.618Z,33.97
2023-01-22T08:45:52.140Z,27.90
2023-01-22T08:48:18.564Z,30.13
2023-01-22T08:50:45.443Z,39.10
2023-01-22T08:53:11.902Z,36.33
2023-01-22T08:55:38.431Z,40.90
2023-01-22T08:58:05.232Z,42.30
2023-01-22T09:00:32.048Z,42.97
2023-01-22T09:02:59.798Z,41.00
2023-01-22T09:05:27.283Z,39.73
2023-01-22T09:07:53.806Z,44.67
2023-01-22T09:10:21.853Z,46.00
2023-01-22T09:12:48.646Z,38.93
2023-01-22T09:15:15.232Z,43.73
2023-01-22T09:17:42.540Z,39.03
2023-01-22T09:20:09.674Z,41.77
2023-01-22T09:22:36.337Z,39.27
2023-01-22T09:25:02.883Z,39.47
2023-01-22T09:27:30.009Z,42.23
2023-01-22T09:29:56.433Z,36.53
2023-01-22T09:32:22.802Z,38.57
2023-01-22T09:34:49.243Z,36.50
2023-01-22T09:37:15.866Z,33.47
2023-01-22T09:39:42.343Z,37.80
2023-01-22T09:42:13.638Z,39.40
2023-01-22T09:44:43.118Z,37.17
2023-01-22T09:47:15.332Z,33.00
2023-01-22T09:50:04.277Z,35.27
2023-01-22T09:52:33.997Z,36.67
2023-01-22T09:55:00.375Z,44.00
2023-01-22T09:57:31.696Z,42.43
2023-01-22T10:00:03.691Z,43.80
2023-01-22T10:02:35.870Z,40.17
2023-01-22T10:05:23.590Z,40.17
2023-01-22T10:08:00.646Z,39.83
2023-01-22T10:10:28.682Z,47.50
2023-01-22T10:12:59.378Z,44.73
2023-01-22T10:15:26.018Z,49.03
2023-01-22T10:17:54.657Z,50.17
2023-01-22T10:20:21.562Z,45.93
2023-01-22T10:22:48.963Z,46.20
2023-01-22T10:25:16.463Z,66.03
2023-01-22T10:27:44.612Z,50.80
2023-01-22T10:30:14.113Z,42.93
2023-01-22T10:32:40.534Z,46.37
2023-01-22T10:35:17.365Z,40.43
2023-01-22T10:37:49.615Z,44.47
2023-01-22T10:40:33.854Z,39.23
2023-01-22T10:43:10.749Z,47.27
2023-01-22T10:45:37.996Z,44.20
2023-01-22T10:48:06.612Z,40.80
2023-01-22T10:50:33.113Z,45.43
2023-01-22T10:53:00.174Z,42.00
2023-01-22T10:55:30.239Z,43.17
2023-01-22T10:58:02.742Z,40.13
2023-01-22T11:00:50.934Z,37.80
2023-01-22T11:03:23.683Z,37.70
2023-01-22T11:05:57.958Z,38.97
2023-01-22T11:08:30.333Z,38.40
2023-01-22T11:11:02.754Z,34.87
2023-01-22T11:13:38.934Z,37.27
2023-01-22T11:16:16.881Z,37.53
2023-01-22T11:18:48.428Z,39.80
2023-01-22T11:21:50.428Z,35.60
2023-01-22T11:24:39.118Z,35.67
2023-01-22T11:27:15.223Z,33.07
2023-01-22T11:30:18.097Z,35.23
2023-01-22T11:33:24.422Z,39.27
2023-01-22T11:36:17.153Z,40.10
2023-01-22T11:38:51.515Z,35.03
2023-01-22T11:41:57.081Z,37.63
2023-01-22T11:44:41.564Z,38.63
2023-01-22T11:47:25.486Z,39.63
2023-01-22T11:50:13.692Z,34.13
2023-01-22T11:52:48.047Z,33.50
2023-01-22T11:55:25.002Z,31.97
2023-01-22T11:58:20.864Z,31.30
2023-01-22T12:01:02.455Z,34.23
2023-01-22T12:03:48.954Z,35.97
2023-01-22T12:07:03.283Z,37.40
2023-01-22T12:09:37.742Z,36.23
2023-01-22T12:12:42.530Z,36.63
2023-01-22T12:15:46.390Z,36.33
2023-01-22T12:18:40.780Z,36.57
2023-01-22T12:21:09.701Z,37.70
2023-01-22T12:23:46.518Z,37.27
2023-01-22T12:26:25.384Z,39.60
2023-01-22T12:29:10.626Z,39.13
2023-01-22T12:31:47.757Z,42.03
2023-01-22T12:34:23.455Z,38.03
2023-01-22T12:36:50.904Z,38.20
2023-01-22T12:39:42.085Z,39.13
2023-01-22T12:42:27.389Z,33.77
2023-01-22T12:45:00.048Z,34.83
2023-01-22T12:47:40.193Z,39.50
2023-01-22T12:50:24.080Z,36.67
2023-01-22T12:53:01.672Z,37.43
2023-01-22T12:55:30.421Z,40.73
2023-01-22T12:57:57.178Z,35.90
2023-01-22T13:00:31.759Z,35.37
2023-01-22T13:02:58.517Z,37.87
2023-01-22T13:05:31.135Z,36.47
2023-01-22T13:08:24.081Z,34.97
2023-01-22T13:11:02.101Z,39.17
2023-01-22T13:13:44.908Z,38.37
2023-01-22T13:16:34.171Z,43.17
2023-01-22T13:19:12.590Z,35.63
2023-01-22T13:21:39.059Z,40.07
2023-01-22T13:24:18.849Z,38.03
2023-01-22T13:27:00.719Z,33.53
2023-01-22T13:29:36.764Z,34.10
2023-01-22T13:32:20.080Z,33.27
2023-01-22T13:34:47.134Z,37.13
2023-01-22T13:37:26.829Z,35.50
2023-01-22T13:39:53.448Z,36.10
2023-01-22T13:42:20.038Z,42.50
2023-01-22T13:44:49.116Z,35.80
2023-01-22T13:47:35.813Z,35.33
2023-01-22T13:50:02.695Z,34.17
2023-01-22T13:52:29.356Z,33.17
2023-01-22T13:55:01.485Z,33.83
2023-01-22T13:57:28.279Z,32.23
2023-01-22T14:00:00.038Z,34.80
2023-01-22T14:02:35.003Z,35.57
2023-01-22T14:05:02.066Z,33.50
2023-01-22T14:07:34.461Z,35.27
2023-01-22T14:10:15.052Z,31.70
2023-01-22T14:12:41.464Z,35.43
2023-01-22T14:15:16.927Z,31.33
2023-01-22T14:17:43.459Z,34.07
2023-01-22T14:20:10.999Z,33.20
2023-01-22T14:22:37.380Z,31.23
2023-01-22T14:25:04.684Z,31.83
2023-01-22T14:27:43.839Z,32.30
2023-01-22T14:30:14.384Z,30.73
2023-01-22T14:32:42.268Z,30.70
2023-01-22T14:35:16.363Z,29.87
2023-01-22T14:37:43.575Z,31.07
2023-01-22T14:40:12.698Z,32.23
2023-01-22T14:42:39.573Z,34.50
2023-01-22T14:45:06.998Z,33.03
2023-01-22T14:47:34.647Z,33.13
2023-01-22T14:50:02.025Z,32.00
2023-01-22T14:52:28.627Z,32.87
2023-01-22T14:54:56.105Z,34.17
2023-01-22T14:57:23.873Z,32.83
2023-01-22T14:59:50.611Z,32.50
2023-01-22T15:02:17.411Z,33.87
2023-01-22T15:04:45.223Z,32.33
2023-01-22T15:07:12.314Z,31.83
2023-01-22T15:09:39.070Z,29.73
2023-01-22T15:12:06.149Z,35.87
2023-01-22T15:14:32.666Z,35.97
2023-01-22T15:16:59.200Z,30.67
2023-01-22T15:19:25.569Z,30.50
2023-01-22T15:21:51.916Z,28.03
2023-01-22T15:24:18.468Z,29.47
2023-01-22T15:26:45.043Z,27.40
2023-01-22T15:29:13.943Z,29.60
2023-01-22T15:31:40.929Z,26.27
2023-01-22T15:34:08.117Z,25.33
2023-01-22T15:36:36.284Z,24.50
2023-01-22T15:39:03.922Z,28.97
2023-01-22T15:41:32.702Z,25.97
2023-01-22T15:44:03.142Z,30.07
2023-01-22T15:46:32.082Z,32.97
2023-01-22T15:48:59.955Z,31.83
2023-01-22T15:51:27.759Z,31.63
2023-01-22T15:53:56.415Z,42.03
2023-01-22T15:56:25.854Z,39.73
2023-01-22T15:58:53.027Z,34.77
2023-01-22T16:01:20.342Z,30.93
2023-01-22T16:03:47.279Z,32.53
2023-01-22T16:06:18.598Z,29.10
2023-01-22T16:08:45.985Z,27.70
2023-01-22T16:11:13.757Z,25.97
2023-01-22T16:13:40.923Z,27.47
2023-01-22T16:16:14.928Z,29.03
2023-01-22T16:18:41.499Z,24.07
2023-01-22T16:21:08.899Z,25.80
2023-01-22T16:23:41.501Z,24.07
2023-01-22T16:26:09.957Z,22.30
2023-01-22T16:28:37.190Z,24.83
2023-01-22T16:31:05.812Z,20.80
2023-01-22T16:33:33.843Z,20.90
2023-01-22T16:36:15.523Z,22.13
2023-01-22T16:38:42.486Z,21.53
2023-01-22T16:41:24.880Z,22.13
2023-01-22T16:43:58.457Z,21.57
2023-01-22T16:46:29.555Z,22.50
2023-01-22T16:49:10.437Z,25.03
2023-01-22T16:51:39.538Z,24.17
2023-01-22T16:54:07.063Z,23.43
2023-01-22T16:56:33.995Z,26.77
2023-01-22T16:59:00.835Z,27.20
2023-01-22T17:01:29.579Z,30.30
2023-01-22T17:03:56.179Z,28.50
2023-01-22T17:06:30.779Z,28.47
2023-01-22T17:08:57.560Z,27.83
2023-01-22T17:11:24.512Z,31.93
2023-01-22T17:13:50.931Z,28.03
2023-01-22T17:16:17.438Z,29.13
2023-01-22T17:18:44.005Z,28.07
2023-01-22T17:21:12.779Z,29.87
2023-01-22T17:23:39.238Z,30.10
2023-01-22T17:26:10.748Z,29.20
2023-01-22T17:28:37.613Z,29.13
2023-01-22T17:31:08.868Z,28.57
2023-01-22T17:33:35.734Z,30.87
2023-01-22T17:36:03.846Z,33.60
2023-01-22T17:38:33.001Z,33.27
2023-01-22T17:41:11.364Z,32.30
2023-01-22T17:43:38.734Z,32.17
2023-01-22T17:46:08.976Z,29.50
2023-01-22T17:48:36.297Z,32.77
2023-01-22T17:51:07.121Z,31.57
2023-01-22T17:53:36.460Z,32.20
2023-01-22T17:56:11.215Z,30.47
2023-01-22T17:58:37.822Z,30.60
2023-01-22T18:01:39.376Z,31.37
2023-01-22T18:04:08.710Z,30.57
2023-01-22T18:06:36.745Z,33.47
2023-01-22T18:09:05.084Z,31.30
2023-01-22T18:11:33.048Z,33.27
2023-01-22T18:14:22.479Z,34.43
2023-01-22T18:16:49.816Z,33.60
2023-01-22T18:19:18.617Z,37.03
2023-01-22T18:21:45.247Z,35.93
2023-01-22T18:24:13.513Z,37.20
2023-01-22T18:26:40.202Z,40.30
2023-01-22T18:29:07.352Z,37.73
2023-01-22T18:31:34.167Z,43.37
2023-01-22T18:34:02.806Z,38.40
2023-01-22T18:36:31.679Z,38.77
2023-01-22T18:39:03.699Z,35.87
2023-01-22T18:41:30.790Z,42.27
2023-01-22T18:43:59.723Z,40.10
2023-01-22T18:46:31.164Z,37.37
2023-01-22T18:49:03.280Z,37.60
2023-01-22T18:51:31.248Z,39.80
2023-01-22T18:53:57.712Z,43.03
2023-01-22T18:56:25.681Z,38.53
2023-01-22T18:58:56.500Z,39.53
2023-01-22T19:01:26.062Z,40.37
2023-01-22T19:03:55.735Z,39.40
2023-01-22T19:06:24.177Z,41.10
2023-01-22T19:09:03.476Z,39.43
2023-01-22T19:11:32.074Z,38.80
2023-01-22T19:14:00.153Z,38.27
2023-01-22T19:16:28.291Z,39.03
2023-01-22T19:18:56.788Z,36.70
2023-01-22T19:21:24.537Z,40.13
2023-01-22T19:23:54.558Z,35.63
2023-01-22T19:26:24.089Z,44.03
2023-01-22T19:29:04.614Z,33.77
2023-01-22T19:31:37.733Z,34.60
2023-01-22T19:34:04.797Z,36.40
2023-01-22T19:36:34.880Z,34.00
2023-01-22T19:39:03.217Z,31.13
2023-01-22T19:41:29.893Z,32.23
2023-01-22T19:43:59.187Z,33.33
2023-01-22T19:46:26.236Z,28.33
2023-01-22T19:48:53.621Z,30.50
2023-01-22T19:51:22.218Z,30.20
2023-01-22T19:53:49.407Z,33.33
2023-01-22T19:56:17.200Z,32.40
2023-01-22T19:58:43.957Z,27.67
2023-01-22T20:01:13.193Z,31.23
2023-01-22T20:03:39.787Z,24.60
2023-01-22T20:06:07.741Z,26.67
2023-01-22T20:08:36.557Z,26.13
2023-01-22T20:11:04.439Z,27.30
2023-01-22T20:13:32.420Z,29.60
2023-01-22T20:15:59.981Z,26.37
2023-01-22T20:18:28.004Z,25.30
2023-01-22T20:20:58.527Z,26.37
2023-01-22T20:23:26.425Z,25.83
2023-01-22T20:25:53.282Z,25.27
2023-01-22T20:28:20.557Z,28.10
2023-01-22T20:30:58.590Z,22.43
2023-01-22T20:33:25.706Z,24.73
2023-01-22T20:35:59.101Z,22.40
2023-01-22T20:38:25.615Z,27.17
2023-01-22T20:40:53.547Z,25.10
2023-01-22T20:43:20.679Z,30.97
2023-01-22T20:46:00.912Z,31.30
2023-01-22T20:48:29.086Z,29.37
2023-01-22T20:50:55.852Z,25.37
2023-01-22T20:53:22.861Z,24.73
2023-01-22T20:56:04.506Z,24.33
2023-01-22T20:58:31.935Z,27.77
2023-01-22T21:01:07.502Z,25.83
2023-01-22T21:03:34.092Z,24.90
2023-01-22T21:06:05.728Z,26.87
2023-01-22T21:08:32.238Z,26.97
2023-01-22T21:11:00.707Z,32.33
2023-01-22T21:13:27.568Z,27.77
2023-01-22T21:15:54.059Z,25.33
2023-01-22T21:18:22.239Z,30.70
2023-01-22T21:20:48.907Z,24.93
2023-01-22T21:23:16.775Z,29.07
2023-01-22T21:25:43.174Z,28.10
2023-01-22T21:28:10.697Z,29.37
2023-01-22T21:30:37.412Z,32.60
2023-01-22T21:33:03.801Z,33.40
2023-01-22T21:35:30.205Z,34.90
2023-01-22T21:37:56.642Z,33.30
2023-01-22T21:40:23.047Z,34.60
2023-01-22T21:43:08.096Z,34.23
2023-01-22T21:45:53.543Z,29.73
2023-01-22T21:48:20.054Z,29.67
2023-01-22T21:50:47.602Z,32.67
2023-01-22T21:53:14.070Z,34.30
2023-01-22T21:55:49.490Z,31.90
2023-01-22T21:58:15.963Z,30.73
2023-01-22T22:00:44.575Z,31.07
2023-01-22T22:03:10.929Z,35.93
2023-01-22T22:05:37.483Z,38.33
2023-01-22T22:08:03.949Z,40.57
2023-01-22T22:10:32.555Z,45.37
2023-01-22T22:12:58.984Z,38.43
2023-01-22T22:15:25.400Z,38.50
2023-01-22T22:17:51.817Z,34.37
2023-01-22T22:20:18.532Z,36.37
2023-01-22T22:22:45.933Z,34.83
2023-01-22T22:25:12.246Z,35.33
2023-01-22T22:27:38.629Z,39.67
2023-01-22T22:30:05.616Z,40.40
2023-01-22T22:32:32.335Z,35.87
2023-01-22T22:34:58.697Z,35.97
2023-01-22T22:37:25.121Z,41.40
2023-01-22T22:39:52.826Z,43.63
2023-01-22T22:42:19.220Z,37.93
2023-01-22T22:44:45.688Z,40.43
2023-01-22T22:47:12.199Z,37.97
2023-01-22T22:49:38.581Z,36.17
2023-01-22T22:52:04.958Z,41.93
2023-01-22T22:54:31.314Z,39.57
2023-01-22T22:56:58.150Z,36.87
2023-01-22T22:59:25.351Z,39.67
2023-01-22T23:01:51.772Z,37.47
2023-01-22T23:04:19.622Z,40.47
2023-01-22T23:06:46.449Z,38.93
2023-01-22T23:09:17.382Z,38.93
2023-01-22T23:11:43.842Z,39.87
2023-01-22T23:14:10.545Z,41.33
2023-01-22T23:16:40.213Z,42.87
2023-01-22T23:19:21.317Z,42.07
2023-01-22T23:21:56.748Z,39.67
2023-01-22T23:24:23.177Z,41.20
2023-01-22T23:26:50.056Z,39.13
2023-01-22T23:29:21.249Z,38.13
2023-01-22T23:31:48.698Z,46.03
2023-01-22T23:34:18.054Z,39.57
2023-01-22T23:36:46.046Z,44.03
2023-01-22T23:39:14.292Z,44.20
2023-01-22T23:41:41.156Z,41.70
2023-01-22T23:44:07.802Z,42.93
2023-01-22T23:46:36.309Z,43.27
2023-01-22T23:49:04.228Z,42.90
2023-01-22T23:51:31.087Z,44.40
2023-01-22T23:54:08.288Z,47.37
2023-01-22T23:56:35.211Z,43.00
2023-01-22T23:59:01.615Z,44.80
